createdAt,value
2022-09-05T00:00:16.973Z,100.00
2022-09-05T00:04:24.265Z,100.00
2022-09-05T00:07:59.703Z,100.00
2022-09-05T00:11:42.487Z,100.00
2022-09-05T00:15:26.961Z,100.00
2022-09-05T00:24:17.194Z,100.00
2022-09-05T00:24:31.787Z,100.00
2022-09-05T00:27:11.999Z,100.00
2022-09-05T00:31:44.259Z,100.00
2022-09-05T00:34:48.443Z,100.00
2022-09-05T00:38:12.995Z,100.00
2022-09-05T00:41:37.007Z,100.00
2022-09-05T00:45:19.330Z,100.00
2022-09-05T00:48:52.006Z,100.00
2022-09-05T00:52:43.021Z,100.00
2022-09-05T00:56:36.015Z,100.00
2022-09-05T01:00:32.063Z,100.00
2022-09-05T01:04:21.971Z,100.00
2022-09-05T01:08:23.012Z,100.00
2022-09-05T01:12:08.030Z,100.00
2022-09-05T01:15:44.118Z,100.00
2022-09-05T01:19:21.067Z,100.00
2022-09-05T01:23:08.613Z,100.00
2022-09-05T01:26:56.114Z,100.00
2022-09-05T01:30:41.166Z,100.00
2022-09-05T01:34:40.059Z,100.00
2022-09-05T01:38:16.076Z,100.00
2022-09-05T01:41:56.990Z,100.00
2022-09-05T01:45:52.139Z,100.00
2022-09-05T01:49:39.032Z,100.00
2022-09-05T01:53:42.197Z,100.00
2022-09-05T01:57:16.050Z,100.00
2022-09-05T02:00:58.066Z,100.00
2022-09-05T02:05:01.011Z,100.00
2022-09-05T02:08:54.014Z,100.00
2022-09-05T02:12:31.069Z,100.00
2022-09-05T02:16:15.045Z,100.00
2022-09-05T02:19:44.078Z,100.00
2022-09-05T02:23:25.960Z,100.00
2022-09-05T02:27:35.876Z,100.00
2022-09-05T02:31:20.036Z,100.00
2022-09-05T02:35:06.024Z,100.00
2022-09-05T02:45:00.596Z,100.00
2022-09-05T02:45:13.547Z,100.00
2022-09-05T02:47:27.042Z,100.00
2022-09-05T02:57:23.823Z,100.00
2022-09-05T02:57:40.794Z,100.00
2022-09-05T02:59:09.988Z,100.00
2022-09-05T03:02:47.079Z,100.00
2022-09-05T03:06:13.054Z,100.00
2022-09-05T03:09:52.050Z,100.00
2022-09-05T03:13:31.055Z,100.00
2022-09-05T03:17:18.104Z,100.00
2022-09-05T03:21:08.983Z,100.00
2022-09-05T03:25:05.037Z,100.00
2022-09-05T03:29:05.111Z,100.00
2022-09-05T03:32:57.062Z,100.00
2022-09-05T03:36:44.190Z,100.00
2022-09-05T03:40:26.026Z,100.00
2022-09-05T03:44:08.102Z,100.00
2022-09-05T03:47:39.081Z,100.00
2022-09-05T03:56:59.853Z,100.00
2022-09-05T03:57:15.204Z,100.00
2022-09-05T03:59:42.076Z,100.00
2022-09-05T04:08:07.988Z,100.00
2022-09-05T04:08:40.944Z,100.00
2022-09-05T04:11:26.069Z,100.00
2022-09-05T04:15:06.049Z,100.00
2022-09-05T04:18:59.104Z,100.00
2022-09-05T04:22:36.085Z,100.00
2022-09-05T04:26:21.054Z,100.00
2022-09-05T04:29:57.081Z,100.00
2022-09-05T04:33:39.124Z,100.00
2022-09-05T04:37:18.078Z,100.00
2022-09-05T04:40:54.118Z,100.00
2022-09-05T04:44:23.079Z,100.00
2022-09-05T04:47:50.053Z,100.00
2022-09-05T04:51:23.083Z,100.00
2022-09-05T04:55:17.135Z,100.00
2022-09-05T05:00:27.638Z,100.00
2022-09-05T05:06:20.300Z,100.00
2022-09-05T05:07:10.209Z,100.00
2022-09-05T05:14:28.999Z,100.00
2022-09-05T05:18:13.919Z,100.00
2022-09-05T05:19:17.273Z,100.00
2022-09-05T05:22:47.128Z,100.00
2022-09-05T05:26:15.129Z,100.00
2022-09-05T05:30:02.080Z,100.00
2022-09-05T05:33:43.119Z,100.00
2022-09-05T05:37:11.081Z,100.00
2022-09-05T05:40:50.971Z,100.00
2022-09-05T05:44:27.144Z,100.00
2022-09-05T05:47:57.110Z,100.00
2022-09-05T05:52:01.434Z,100.00
2022-09-05T05:56:04.194Z,100.00
2022-09-05T05:59:56.490Z,100.00
2022-09-05T06:03:50.219Z,100.00
2022-09-05T06:07:20.152Z,100.00
2022-09-05T06:14:49.648Z,100.00
2022-09-05T06:15:22.454Z,100.00
2022-09-05T06:19:48.422Z,100.00
2022-09-05T06:23:57.087Z,100.00
2022-09-05T06:28:17.867Z,100.00
2022-09-05T06:31:57.135Z,100.00
2022-09-05T06:35:39.102Z,100.00
2022-09-05T06:39:26.208Z,100.00
2022-09-05T06:43:05.096Z,100.00
2022-09-05T06:46:55.349Z,100.00
2022-09-05T06:50:28.247Z,100.00
2022-09-05T06:54:04.181Z,100.00
2022-09-05T06:57:58.142Z,100.00
2022-09-05T07:01:23.275Z,100.00
2022-09-05T07:05:37.970Z,100.00
2022-09-05T07:09:04.125Z,100.00
2022-09-05T07:12:45.162Z,100.00
2022-09-05T07:16:16.127Z,100.00
2022-09-05T07:19:54.790Z,100.00
2022-09-05T07:24:06.636Z,100.00
2022-09-05T07:27:25.459Z,100.00
2022-09-05T07:30:51.144Z,100.00
2022-09-05T07:34:42.100Z,100.00
2022-09-05T07:38:41.909Z,100.00
2022-09-05T07:42:20.132Z,100.00
2022-09-05T07:45:52.298Z,100.00
2022-09-05T07:49:22.159Z,100.00
2022-09-05T07:57:09.518Z,100.00
2022-09-05T07:57:30.325Z,100.00
2022-09-05T08:00:59.165Z,100.00
2022-09-05T08:04:23.147Z,100.00
2022-09-05T08:07:52.171Z,100.00
2022-09-05T08:11:26.493Z,100.00
2022-09-05T08:15:04.128Z,100.00
2022-09-05T08:18:32.197Z,100.00
2022-09-05T08:22:05.124Z,100.00
2022-09-05T08:25:57.313Z,100.00
2022-09-05T08:29:28.151Z,100.00
2022-09-05T08:33:18.294Z,100.00
2022-09-05T08:36:54.173Z,100.00
2022-09-05T08:40:29.207Z,100.00
2022-09-05T08:46:42.192Z,100.00
2022-09-05T08:48:24.164Z,100.00
2022-09-05T08:52:12.162Z,100.00
2022-09-05T08:55:46.193Z,100.00
2022-09-05T08:59:28.319Z,100.00
2022-09-05T09:03:18.282Z,100.00
2022-09-05T09:07:47.084Z,100.00
2022-09-05T09:11:09.140Z,100.00
2022-09-05T09:14:38.162Z,100.00
2022-09-05T09:18:05.699Z,100.00
2022-09-05T09:21:52.219Z,100.00
2022-09-05T09:25:27.877Z,100.00
2022-09-05T09:28:57.179Z,100.00
2022-09-05T09:32:28.221Z,100.00
2022-09-05T09:35:54.333Z,100.00
2022-09-05T09:39:39.224Z,100.00
2022-09-05T09:43:20.134Z,100.00
2022-09-05T09:46:57.276Z,100.00
2022-09-05T09:50:47.834Z,100.00
2022-09-05T09:54:41.174Z,100.00
2022-09-05T09:58:31.281Z,100.00
2022-09-05T10:06:31.764Z,100.00
2022-09-05T10:10:53.742Z,100.00
2022-09-05T10:10:58.713Z,100.00
2022-09-05T10:14:47.849Z,100.00
2022-09-05T10:18:34.154Z,100.00
2022-09-05T10:25:51.207Z,100.00
2022-09-05T10:29:35.029Z,100.00
2022-09-05T10:35:17.458Z,100.00
2022-09-05T10:37:07.179Z,100.00
2022-09-05T10:41:19.689Z,100.00
2022-09-05T10:44:22.208Z,100.00
2022-09-05T10:48:26.164Z,100.00
2022-09-05T10:52:18.126Z,100.00
2022-09-05T10:56:00.165Z,100.00
2022-09-05T11:02:20.213Z,100.00
2022-09-05T11:03:40.263Z,100.00
2022-09-05T11:07:29.532Z,100.00
2022-09-05T11:11:28.769Z,100.00
2022-09-05T11:15:12.193Z,100.00
2022-09-05T11:19:26.246Z,100.00
2022-09-05T11:22:54.200Z,100.00
2022-09-05T11:26:23.231Z,100.00
2022-09-05T11:30:30.441Z,100.00
2022-09-05T11:39:35.123Z,100.00
2022-09-05T11:39:57.630Z,100.00
2022-09-05T11:42:05.222Z,100.00
2022-09-05T11:46:09.264Z,100.00
2022-09-05T11:49:59.261Z,100.00
2022-09-05T11:54:01.181Z,100.00
2022-09-05T11:57:39.255Z,100.00
2022-09-05T12:01:42.284Z,100.00
2022-09-05T12:05:50.307Z,100.00
2022-09-05T12:08:57.251Z,100.00
2022-09-05T12:12:43.387Z,100.00
2022-09-05T12:16:10.105Z,100.00
2022-09-05T12:19:50.206Z,100.00
2022-09-05T12:24:12.735Z,100.00
2022-09-05T12:27:41.242Z,100.00
2022-09-05T12:32:30.921Z,100.00
2022-09-05T12:36:04.818Z,100.00
2022-09-05T12:41:32.283Z,100.00
2022-09-05T12:43:52.658Z,100.00
2022-09-05T12:46:58.217Z,100.00
2022-09-05T12:51:00.194Z,100.00
2022-09-05T12:54:33.612Z,100.00
2022-09-05T13:03:05.944Z,100.00
2022-09-05T13:03:14.742Z,100.00
2022-09-05T13:05:34.310Z,100.00
2022-09-05T13:09:05.275Z,100.00
2022-09-05T13:14:52.638Z,100.00
2022-09-05T13:16:23.365Z,100.00
2022-09-05T13:19:59.285Z,100.00
2022-09-05T13:23:39.249Z,100.00
2022-09-05T13:27:28.256Z,100.00
2022-09-05T13:35:31.645Z,100.00
2022-09-05T13:38:11.509Z,100.00
2022-09-05T13:39:13.240Z,100.00
2022-09-05T13:42:48.235Z,100.00
2022-09-05T13:46:25.323Z,100.00
2022-09-05T13:49:53.282Z,100.00
2022-09-05T13:53:36.593Z,100.00
2022-09-05T13:57:12.275Z,100.00
2022-09-05T14:00:54.380Z,100.00
2022-09-05T14:08:26.285Z,100.00
2022-09-05T14:11:50.201Z,100.00
2022-09-05T14:15:24.876Z,100.00
2022-09-05T14:19:16.269Z,100.00
2022-09-05T14:23:21.305Z,100.00
2022-09-05T14:26:58.265Z,100.00
2022-09-05T14:32:07.929Z,100.00
2022-09-05T14:37:38.731Z,100.00
2022-09-05T14:38:31.657Z,100.00
2022-09-05T14:42:09.545Z,100.00
2022-09-05T14:46:00.883Z,100.00
2022-09-05T14:50:03.910Z,100.00
2022-09-05T15:02:38.685Z,100.00
2022-09-05T15:02:48.568Z,100.00
2022-09-05T15:05:10.989Z,99.29
2022-09-05T15:11:24.413Z,98.99
2022-09-05T15:12:45.297Z,100.00
2022-09-05T15:16:24.298Z,100.00
2022-09-05T15:20:07.474Z,100.00
2022-09-05T15:23:39.295Z,100.00
2022-09-05T15:27:06.286Z,100.00
2022-09-05T15:30:37.368Z,100.00
2022-09-05T15:34:02.238Z,100.00
2022-09-05T15:37:48.286Z,100.00
2022-09-05T15:41:34.349Z,100.00
2022-09-05T15:45:10.330Z,100.00
2022-09-05T15:48:34.889Z,100.00
2022-09-05T15:52:09.321Z,100.00
2022-09-05T15:55:39.283Z,100.00
2022-09-05T15:59:08.320Z,100.00
2022-09-05T16:02:45.357Z,100.00
2022-09-05T16:10:31.137Z,100.00
2022-09-05T16:10:48.539Z,100.00
2022-09-05T16:13:57.263Z,99.73
2022-09-05T16:23:14.178Z,97.37
2022-09-05T16:23:38.204Z,97.38
2022-09-05T16:25:30.388Z,96.45
2022-09-05T16:29:02.330Z,94.92
2022-09-05T16:32:33.285Z,94.93
2022-09-05T16:36:07.281Z,97.71
2022-09-05T16:39:35.379Z,95.60
2022-09-05T16:43:13.297Z,96.49
2022-09-05T16:46:37.319Z,96.95
2022-09-05T16:50:34.823Z,95.42
2022-09-05T16:54:10.995Z,95.85
2022-09-05T16:57:39.293Z,94.47
2022-09-05T17:01:36.403Z,91.80
2022-09-05T17:05:05.941Z,93.81
2022-09-05T17:08:42.338Z,91.76
2022-09-05T17:12:10.307Z,92.13
2022-09-05T17:15:51.925Z,93.19
2022-09-05T17:19:19.300Z,90.36
2022-09-05T17:26:21.703Z,89.78
2022-09-05T17:29:38.423Z,87.65
2022-09-05T17:35:17.390Z,85.36
2022-09-05T17:39:45.096Z,85.00
2022-09-05T17:43:13.318Z,87.58
2022-09-05T17:47:02.333Z,87.18
2022-09-05T17:50:33.653Z,87.73
2022-09-05T17:54:23.375Z,86.46
2022-09-05T17:57:49.292Z,85.68
2022-09-05T18:01:17.443Z,83.58
2022-09-05T18:04:59.352Z,81.63
2022-09-05T18:08:22.318Z,81.27
2022-09-05T18:11:48.346Z,81.67
2022-09-05T18:15:13.359Z,80.48
2022-09-05T18:19:28.145Z,81.49
2022-09-05T18:22:43.294Z,83.83
2022-09-05T18:26:17.289Z,84.36
2022-09-05T18:29:58.668Z,84.05
2022-09-05T18:33:53.417Z,83.15
2022-09-05T18:37:12.356Z,82.79
2022-09-05T18:40:54.287Z,83.33
2022-09-05T18:44:24.308Z,84.06
2022-09-05T18:48:09.130Z,84.34
2022-09-05T18:51:38.275Z,85.73
2022-09-05T18:56:08.948Z,86.10
2022-09-05T18:59:09.735Z,87.51
2022-09-05T19:02:51.328Z,84.16
2022-09-05T19:06:37.231Z,84.73
2022-09-05T19:10:34.979Z,74.27
2022-09-05T19:14:25.675Z,67.68
2022-09-05T19:17:53.331Z,67.43
2022-09-05T19:21:19.329Z,66.77
2022-09-05T19:24:45.521Z,64.24
2022-09-05T19:35:03.683Z,62.44
2022-09-05T19:37:05.307Z,59.62
2022-09-05T19:37:14.274Z,62.38
2022-09-05T19:43:10.859Z,64.49
2022-09-05T19:47:44.057Z,63.38
2022-09-05T19:48:04.111Z,62.00
2022-09-05T19:51:26.211Z,60.53
2022-09-05T19:54:44.373Z,60.28
2022-09-05T19:58:28.089Z,60.02
2022-09-05T20:01:59.367Z,62.28
2022-09-05T20:05:23.353Z,61.71
2022-09-05T20:08:49.380Z,61.58
2022-09-05T20:12:13.361Z,60.42
2022-09-05T20:15:41.392Z,60.11
2022-09-05T20:19:05.638Z,59.47
2022-09-05T20:22:49.111Z,59.37
2022-09-05T20:26:13.361Z,59.48
2022-09-05T20:29:54.925Z,59.13
2022-09-05T20:33:32.308Z,60.36
2022-09-05T20:43:09.907Z,59.22
2022-09-05T20:43:29.179Z,58.27
2022-09-05T20:44:34.424Z,59.09
2022-09-05T20:54:06.027Z,57.80
2022-09-05T20:54:13.816Z,57.01
2022-09-05T20:55:46.412Z,55.96
2022-09-05T20:59:10.393Z,55.65
2022-09-05T21:02:37.455Z,54.84
2022-09-05T21:06:03.401Z,54.22
2022-09-05T21:09:33.414Z,55.25
2022-09-05T21:13:00.364Z,54.93
2022-09-05T21:16:32.481Z,53.28
2022-09-05T21:19:56.379Z,53.41
2022-09-05T21:23:35.373Z,52.00
2022-09-05T21:26:59.342Z,52.34
2022-09-05T21:30:37.373Z,51.38
2022-09-05T21:34:02.390Z,49.38
2022-09-05T21:37:31.382Z,50.55
2022-09-05T21:40:59.389Z,50.90
2022-09-05T21:47:44.090Z,49.01
2022-09-05T21:48:05.454Z,49.84
2022-09-05T21:51:34.380Z,48.45
2022-09-05T21:59:13.636Z,48.39
2022-09-05T21:59:36.649Z,47.39
2022-09-05T22:02:28.553Z,47.53
2022-09-05T22:05:52.338Z,46.28
2022-09-05T22:09:21.423Z,47.93
2022-09-05T22:12:46.338Z,48.12
2022-09-05T22:16:12.424Z,47.48
2022-09-05T22:19:42.332Z,47.56
2022-09-05T22:23:05.368Z,46.72
2022-09-05T22:26:24.403Z,46.36
2022-09-05T22:29:47.429Z,46.53
2022-09-05T22:33:14.369Z,45.82
2022-09-05T22:36:40.341Z,45.74
2022-09-05T22:40:04.402Z,47.71
2022-09-05T22:43:28.417Z,44.08
2022-09-05T22:46:53.406Z,44.98
2022-09-05T22:50:17.370Z,45.25
2022-09-05T22:53:33.991Z,44.90
2022-09-05T22:56:51.431Z,42.98
2022-09-05T23:00:14.407Z,44.04
2022-09-05T23:03:38.428Z,40.47
2022-09-05T23:07:02.371Z,40.86
2022-09-05T23:10:26.382Z,40.72
2022-09-05T23:13:51.414Z,40.23
2022-09-05T23:17:15.373Z,40.22
2022-09-05T23:20:40.380Z,39.30
2022-09-05T23:24:04.426Z,40.32
2022-09-05T23:27:27.374Z,40.52
2022-09-05T23:30:51.474Z,40.96
2022-09-05T23:34:16.420Z,40.06
2022-09-05T23:37:40.432Z,39.18
2022-09-05T23:41:04.374Z,39.72
2022-09-05T23:44:28.401Z,39.57
2022-09-05T23:47:51.415Z,38.62
2022-09-05T23:51:24.360Z,38.91
2022-09-05T23:54:47.454Z,36.96
2022-09-05T23:58:15.396Z,36.30
